Houston, TX (77024)

1:15 PM CDT on April 27, 2015 (GMT -0500)
Memorial Villages, Houston TX 77024 | | Change Station
CLOSE
Current Station
Personal Weather Station
Location: Houston, TX
Elevation: 91 ft
Nearby Weather Stations

Elev 91 ft 29.77 °N, 95.51 °W | Updated 5 seconds ago

Overcast
Overcast
74.1 °F
Feels Like 74 °F
N
0.9
Wind Variable Wind from SE
Gusts 1.0 mph

Today
High -- | Low -- °F
--% Chance of Precip.
Yesterday
High -- | Low -- °F
Precip. -- in
6:43 AM 7:56 PM
Waxing Gibbous, 66% visible
Pressure 29.66 in
Visibility 10.0 miles
Clouds Overcast 3000 ft
Heat Index 74 °F
Dew Point 68 °F
Humidity 83%
Rainfall 0.05 in
Snow Depth Not available.
UV 2.2 out of 12
Pollen 7.50 out of 12
Air Quality Not available.
Flu Activity Local Activity
METAR KMCJ 271755Z AUTO 00000KT 10SM OVC030 24/18 A2966 RMK AO1

More Conditions Fewer Conditions

Pressure 29.66 in
Visibility 10.0 miles
Clouds Overcast 3000 ft
Heat Index 74 °F
Dew Point 68 °F
Humidity 83%
Rainfall 0.05 in
Snow Depth Not available.
UV 2.2 out of 12
Pollen 7.50 out of 12
Air Quality Not available.
Flu Activity Local Activity
METAR KMCJ 271755Z AUTO 00000KT 10SM OVC030 24/18 A2966 RMK AO1

More Conditions Fewer Conditions

10-Day Weather Forecast

Almanac

Astronomy

Apr. 27, 2015 Rise Set
Actual Time
Civil Twilight
Nautical Twilight
Astronomical Twilight
Moon
Length of Visible Light
Length of Day
Tomorrow will be .
, % of the Moon is Illuminated

Today's Extremes

State Highs State Lows

Community

WunderPhotos

Upload Photos

1,817,389 photos uploaded!

WunderBlogs® & News

Nearby

Air Quality

  Air Quality AQ Index Pollutant
Not available.

Snow Depth

Station Depth Elevation

Earthquake Activity

City Distance Mag. Time & Date
Minimum magnitude displayed is 2.5.

Coastal Water Temperatures

Place Temperature

Stations

Nearby Weather Stations

Station Location Temp. Windchill Dew Point Humidity Wind Precip. Elev Updated Type